Time;durP1;ratioP1;P1;durP2;ratioP2;P2;SDS_P1;SDS_P2;PMS_P1;PMS_P2;Temp;Humidity;BMP_temperature;BMP_pressure;BME280_temperature;BME280_humidity;BME280_pressure;Samples;Min_cycle;Max_cycle;Signal;HPM_P1;HPM_P2
2022/06/26 00:01:53;;;;;;;9.23;8.32;;;19.60;99.90;;;;;;5089663;28;20047;-77
2022/06/26 00:04:18;;;;;;;10.02;8.20;;;19.60;99.90;;;;;;5076187;28;20460;-77
2022/06/26 00:06:44;;;;;;;10.95;9.65;;;19.60;99.90;;;;;;5096439;28;20043;-77
2022/06/26 00:09:13;;;;;;;13.60;8.90;;;19.60;99.90;;;;;;5093651;28;20143;-77
2022/06/26 00:11:39;;;;;;;13.90;9.43;;;19.60;99.90;;;;;;5070583;28;20503;-77
2022/06/26 00:14:04;;;;;;;10.23;9.20;;;19.60;99.90;;;;;;5066387;28;20035;-76
2022/06/26 00:16:30;;;;;;;12.25;9.50;;;19.60;99.90;;;;;;5098239;28;20119;-77
2022/06/26 00:18:56;;;;;;;10.95;9.18;;;19.60;99.90;;;;;;5096629;28;20081;-76
2022/06/26 00:21:22;;;;;;;12.68;9.30;;;19.60;99.90;;;;;;5111371;28;20043;-77
2022/06/26 00:23:48;;;;;;;10.30;8.73;;;19.50;99.90;;;;;;5091826;28;20517;-77
2022/06/26 00:26:14;;;;;;;11.70;10.00;;;19.50;99.90;;;;;;5080618;28;20123;-77
2022/06/26 00:28:39;;;;;;;14.20;10.40;;;19.50;99.90;;;;;;5076364;28;20500;-76
2022/06/26 00:31:05;;;;;;;14.90;9.88;;;19.60;99.90;;;;;;5101927;27;20031;-77
2022/06/26 00:33:31;;;;;;;13.30;9.82;;;19.60;99.90;;;;;;5116935;27;20039;-76
2022/06/26 00:35:57;;;;;;;14.40;10.00;;;19.50;99.90;;;;;;5082827;27;20471;-77
2022/06/26 00:38:22;;;;;;;14.30;9.95;;;19.60;99.90;;;;;;5078176;28;20149;-77
2022/06/26 00:40:48;;;;;;;14.32;10.20;;;19.50;99.90;;;;;;5088354;28;20042;-77
2022/06/26 00:43:14;;;;;;;14.07;9.38;;;19.50;99.90;;;;;;5084523;27;20184;-77
2022/06/26 00:45:39;;;;;;;12.95;9.77;;;19.60;99.90;;;;;;5092388;27;20046;-77
2022/06/26 00:48:05;;;;;;;13.77;9.85;;;19.60;99.90;;;;;;5099797;27;20043;-77
2022/06/26 00:50:31;;;;;;;13.63;9.52;;;19.50;99.90;;;;;;5099145;27;20035;-77
2022/06/26 00:52:57;;;;;;;14.73;9.90;;;19.50;99.90;;;;;;5096667;28;20035;-77
2022/06/26 00:55:23;;;;;;;10.57;8.75;;;19.50;99.90;;;;;;5098377;27;20042;-77
2022/06/26 00:57:50;;;;;;;12.93;8.77;;;19.50;99.90;;;;;;5093322;28;20040;-77
2022/06/26 01:00:16;;;;;;;12.95;8.25;;;19.50;99.90;;;;;;5088164;27;20031;-77
2022/06/26 01:02:42;;;;;;;14.13;8.63;;;19.50;99.90;;;;;;5111204;28;20063;-76
2022/06/26 01:05:09;;;;;;;13.52;7.82;;;19.50;99.90;;;;;;5082925;27;20560;-76
2022/06/26 01:07:35;;;;;;;12.43;8.18;;;19.50;99.90;;;;;;5063016;28;20392;-76
2022/06/26 01:10:02;;;;;;;11.55;7.90;;;19.40;99.90;;;;;;5071648;27;20043;-77
2022/06/26 01:12:28;;;;;;;11.70;7.90;;;19.40;99.90;;;;;;5096411;27;20042;-77
2022/06/26 01:14:54;;;;;;;16.08;8.15;;;19.50;99.90;;;;;;5080526;27;20046;-76
2022/06/26 01:17:20;;;;;;;12.77;8.73;;;19.40;99.90;;;;;;5082801;27;20102;-77
2022/06/26 01:19:46;;;;;;;9.27;7.38;;;19.40;99.90;;;;;;5097203;27;20039;-76
2022/06/26 01:22:12;;;;;;;12.35;7.60;;;19.40;99.90;;;;;;5080058;28;20063;-77
2022/06/26 01:24:37;;;;;;;11.23;7.68;;;19.40;99.90;;;;;;5078484;28;20071;-77
2022/06/26 01:27:04;;;;;;;12.30;7.97;;;19.30;99.90;;;;;;5061727;28;20039;-76
2022/06/26 01:29:29;;;;;;;12.73;7.53;;;19.30;99.90;;;;;;5075638;27;20118;-77
2022/06/26 01:31:55;;;;;;;10.50;7.30;;;19.30;99.90;;;;;;5093999;27;20191;-77
2022/06/26 01:34:21;;;;;;;13.82;7.20;;;19.30;99.90;;;;;;5052652;28;20050;-77
2022/06/26 01:36:47;;;;;;;9.70;7.05;;;19.30;99.90;;;;;;5110893;27;20035;-76
2022/06/26 01:39:13;;;;;;;8.65;5.75;;;19.20;99.90;;;;;;5114616;27;20091;-77
2022/06/26 01:41:39;;;;;;;10.20;6.03;;;19.30;99.90;;;;;;5103728;28;20035;-77
2022/06/26 01:44:07;;;;;;;8.93;5.90;;;19.20;99.90;;;;;;5052445;27;20493;-77
2022/06/26 01:46:34;;;;;;;9.65;4.88;;;19.20;99.90;;;;;;5098152;28;20104;-77
2022/06/26 01:48:59;;;;;;;7.82;5.28;;;19.20;99.90;;;;;;5096470;28;20040;-77
2022/06/26 01:51:25;;;;;;;8.98;4.78;;;19.20;99.90;;;;;;5071188;27;20541;-77
2022/06/26 01:53:51;;;;;;;8.55;5.20;;;19.20;99.90;;;;;;5079144;28;20040;-77
2022/06/26 01:56:17;;;;;;;8.15;5.15;;;19.20;99.90;;;;;;5091623;27;20402;-77
2022/06/26 01:58:44;;;;;;;13.05;5.53;;;19.10;99.90;;;;;;5096043;27;20043;-77
2022/06/26 02:01:10;;;;;;;9.82;4.47;;;19.10;99.90;;;;;;5095213;28;20441;-77
2022/06/26 02:03:36;;;;;;;6.72;4.30;;;19.10;99.90;;;;;;5092192;27;20069;-77
2022/06/26 02:06:02;;;;;;;7.38;3.80;;;19.10;99.90;;;;;;5101087;28;20118;-77
2022/06/26 02:08:28;;;;;;;7.78;4.22;;;19.10;99.90;;;;;;5091488;28;20035;-77
2022/06/26 02:13:42;;;;;;;5.43;3.75;;;19.00;99.90;;;;;;5114773;28;20043;-77
2022/06/26 02:16:30;;;;;;;5.70;3.50;;;19.00;99.90;;;;;;5096193;28;20501;-77
2022/06/26 02:18:57;;;;;;;3.88;3.10;;;19.00;99.90;;;;;;5084221;28;20043;-76
2022/06/26 02:21:30;;;;;;;4.65;3.13;;;18.90;99.90;;;;;;5089116;28;20039;-77
2022/06/26 02:23:59;;;;;;;5.40;3.42;;;18.90;99.90;;;;;;5096063;28;20041;-76
2022/06/26 02:26:25;;;;;;;5.63;2.80;;;18.90;99.90;;;;;;5082730;28;20039;-77
2022/06/26 02:28:51;;;;;;;3.17;2.88;;;18.90;99.90;;;;;;5080836;28;20047;-77
2022/06/26 02:31:17;;;;;;;4.32;3.00;;;18.80;99.90;;;;;;5104612;28;20039;-76
2022/06/26 02:33:43;;;;;;;4.20;2.55;;;18.80;99.90;;;;;;5100639;28;20556;-77
2022/06/26 02:36:09;;;;;;;3.50;2.47;;;18.80;99.90;;;;;;5093407;28;20556;-77
2022/06/26 02:38:35;;;;;;;3.95;2.60;;;18.80;99.90;;;;;;5097796;28;20047;-77
2022/06/26 02:41:02;;;;;;;3.38;2.45;;;18.80;99.90;;;;;;5091691;28;20463;-76
2022/06/26 02:43:27;;;;;;;2.58;2.38;;;18.70;99.90;;;;;;5098057;28;21212;-77
2022/06/26 02:45:55;;;;;;;2.92;2.63;;;18.70;99.90;;;;;;5115343;28;20122;-77
2022/06/26 02:48:21;;;;;;;2.70;2.40;;;18.70;99.90;;;;;;5097247;28;20043;-77
2022/06/26 02:50:47;;;;;;;2.47;2.25;;;18.60;99.90;;;;;;5112865;28;20046;-77
2022/06/26 02:53:14;;;;;;;5.78;2.80;;;18.50;99.90;;;;;;5098456;28;20043;-76
2022/06/26 02:55:39;;;;;;;4.82;2.63;;;18.50;99.90;;;;;;5080937;28;20493;-77
2022/06/26 02:58:05;;;;;;;2.63;2.42;;;18.50;99.90;;;;;;5097510;28;20047;-77
2022/06/26 03:00:31;;;;;;;2.80;2.50;;;18.40;99.90;;;;;;5100197;28;20040;-77
2022/06/26 03:02:59;;;;;;;3.53;2.50;;;18.30;99.90;;;;;;5097850;28;20035;-76
2022/06/26 03:05:25;;;;;;;5.18;3.05;;;18.30;99.90;;;;;;5097528;28;20085;-76
2022/06/26 03:07:50;;;;;;;3.42;2.38;;;18.30;99.90;;;;;;5114802;28;20070;-77
2022/06/26 03:10:16;;;;;;;3.05;2.60;;;18.20;99.90;;;;;;5090178;28;20073;-77
2022/06/26 03:12:44;;;;;;;3.92;2.40;;;18.20;99.90;;;;;;5097600;28;20047;-77
2022/06/26 03:15:10;;;;;;;4.05;2.92;;;18.20;99.90;;;;;;5097917;28;20061;-76
2022/06/26 03:17:36;;;;;;;3.65;2.30;;;18.10;99.90;;;;;;5081736;27;20054;-76
2022/06/26 03:20:01;;;;;;;3.17;2.88;;;18.10;99.90;;;;;;5081542;28;20043;-76
2022/06/26 03:22:27;;;;;;;3.20;2.67;;;18.10;99.90;;;;;;5056393;27;20043;-76
2022/06/26 03:24:53;;;;;;;4.65;2.70;;;18.10;99.90;;;;;;5101419;27;20089;-77
2022/06/26 03:27:19;;;;;;;3.13;2.80;;;18.10;99.90;;;;;;5100981;27;20499;-76
2022/06/26 03:29:44;;;;;;;3.05;2.42;;;18.10;99.90;;;;;;5088227;27;20059;-77
2022/06/26 03:32:10;;;;;;;3.30;2.40;;;18.00;99.90;;;;;;5083080;27;20047;-77
2022/06/26 03:34:36;;;;;;;3.75;2.83;;;18.00;99.90;;;;;;5100294;27;20118;-76
2022/06/26 03:37:02;;;;;;;5.32;2.70;;;18.00;99.90;;;;;;5101213;27;20077;-77
2022/06/26 03:39:28;;;;;;;3.65;3.05;;;18.00;99.90;;;;;;5095384;28;20094;-76
2022/06/26 03:42:02;;;;;;;4.15;2.78;;;17.90;99.90;;;;;;5064004;28;20459;-77
2022/06/26 03:44:29;;;;;;;3.72;2.70;;;18.00;99.90;;;;;;5067564;28;20039;-76
2022/06/26 03:46:55;;;;;;;3.63;2.80;;;17.90;99.90;;;;;;5082723;28;20035;-76
2022/06/26 03:49:21;;;;;;;3.50;2.95;;;17.90;99.90;;;;;;5080693;27;20530;-76
2022/06/26 03:51:47;;;;;;;3.17;2.80;;;17.90;99.90;;;;;;5061314;28;20050;-77
2022/06/26 03:54:13;;;;;;;3.40;3.03;;;17.90;99.90;;;;;;5067908;28;20032;-76
2022/06/26 03:56:39;;;;;;;3.63;2.80;;;17.90;99.90;;;;;;5093678;27;20032;-76
2022/06/26 03:59:05;;;;;;;3.80;2.83;;;17.90;99.90;;;;;;5097956;27;20436;-76
2022/06/26 04:01:31;;;;;;;4.80;2.90;;;17.80;99.90;;;;;;5083848;27;20051;-76
2022/06/26 04:03:57;;;;;;;3.50;2.90;;;17.80;99.90;;;;;;5100769;27;20039;-76
2022/06/26 04:06:22;;;;;;;4.53;2.88;;;17.70;99.90;;;;;;5078460;28;20605;-77
2022/06/26 04:08:48;;;;;;;4.13;3.20;;;17.80;99.90;;;;;;5064009;27;20047;-76
2022/06/26 04:11:15;;;;;;;4.68;3.65;;;17.80;99.90;;;;;;5060315;28;20069;-76
2022/06/26 04:13:42;;;;;;;4.32;3.38;;;17.80;99.90;;;;;;5112525;27;20043;-77
2022/06/26 04:16:08;;;;;;;6.28;4.20;;;17.80;99.90;;;;;;5080281;28;20104;-76
2022/06/26 04:18:34;;;;;;;6.35;5.20;;;17.90;99.90;;;;;;5084541;28;20377;-77
2022/06/26 04:20:59;;;;;;;5.82;5.10;;;17.90;99.90;;;;;;5091472;27;20096;-77
2022/06/26 04:23:25;;;;;;;6.82;6.10;;;17.90;99.90;;;;;;5099740;27;20100;-77
2022/06/26 04:25:51;;;;;;;7.47;5.68;;;17.90;99.90;;;;;;5102641;28;20039;-76
2022/06/26 04:28:16;;;;;;;7.97;5.38;;;18.00;99.90;;;;;;5052117;27;20501;-77
2022/06/26 04:30:42;;;;;;;6.60;5.68;;;18.00;99.90;;;;;;5077407;27;20039;-77
2022/06/26 04:33:08;;;;;;;6.75;5.70;;;18.00;99.90;;;;;;5099639;27;20058;-76
2022/06/26 04:35:34;;;;;;;6.60;5.75;;;18.00;99.90;;;;;;5096372;27;20383;-77
2022/06/26 04:38:00;;;;;;;6.47;5.50;;;18.00;99.90;;;;;;5099181;27;20035;-77
2022/06/26 04:40:26;;;;;;;7.80;5.68;;;18.00;99.90;;;;;;5091832;27;20044;-77
2022/06/26 04:42:52;;;;;;;7.43;5.72;;;18.00;99.90;;;;;;5089832;27;20031;-77
2022/06/26 04:45:18;;;;;;;6.90;5.82;;;18.00;99.90;;;;;;5116320;27;20527;-76
2022/06/26 04:47:43;;;;;;;7.07;6.32;;;18.00;99.90;;;;;;5116507;27;20039;-77
2022/06/26 04:50:09;;;;;;;7.30;6.20;;;18.00;99.90;;;;;;5093137;27;20040;-76
2022/06/26 04:52:35;;;;;;;7.88;6.80;;;18.00;99.90;;;;;;5081357;27;20447;-77
2022/06/26 04:55:01;;;;;;;8.50;6.57;;;18.00;99.90;;;;;;5099023;27;20035;-77
2022/06/26 04:57:27;;;;;;;8.55;7.00;;;18.10;99.90;;;;;;5089040;28;20040;-77
2022/06/26 04:59:53;;;;;;;7.07;6.38;;;18.10;99.90;;;;;;5063317;28;20065;-77
2022/06/26 05:02:19;;;;;;;12.05;7.00;;;18.10;99.90;;;;;;5080067;27;20089;-77
2022/06/26 05:04:45;;;;;;;8.55;6.82;;;18.20;99.90;;;;;;5059857;28;20728;-76
2022/06/26 05:07:11;;;;;;;8.40;7.60;;;18.20;99.90;;;;;;5091398;27;20024;-77
2022/06/26 05:09:37;;;;;;;9.43;7.85;;;18.20;99.90;;;;;;5099111;27;20039;-77
2022/06/26 05:12:03;;;;;;;10.95;8.27;;;18.20;99.90;;;;;;5072825;28;20037;-76
2022/06/26 05:14:29;;;;;;;9.80;8.52;;;18.10;99.90;;;;;;5109328;27;20035;-76
2022/06/26 05:16:54;;;;;;;11.15;9.57;;;18.10;99.90;;;;;;5098588;27;20031;-76
2022/06/26 05:19:20;;;;;;;9.98;8.73;;;18.10;99.90;;;;;;5080230;27;20071;-77
2022/06/26 05:21:46;;;;;;;12.82;10.20;;;18.00;99.90;;;;;;5074340;27;20069;-77
2022/06/26 05:24:12;;;;;;;11.52;10.15;;;18.00;99.90;;;;;;5079016;28;20032;-76
2022/06/26 05:26:39;;;;;;;11.35;9.55;;;18.00;99.90;;;;;;5080212;27;20116;-77
2022/06/26 05:29:05;;;;;;;11.38;9.50;;;18.00;99.90;;;;;;5096580;27;20560;-77
2022/06/26 05:31:30;;;;;;;10.82;9.73;;;18.10;99.90;;;;;;5072545;28;20075;-77
2022/06/26 05:33:56;;;;;;;10.57;9.57;;;18.10;99.90;;;;;;5091348;27;20472;-76
2022/06/26 05:36:22;;;;;;;10.18;9.18;;;18.10;99.90;;;;;;5084784;28;20046;-76
2022/06/26 05:38:47;;;;;;;10.68;9.57;;;18.20;99.90;;;;;;5096697;28;20127;-76
2022/06/26 05:41:13;;;;;;;11.98;9.48;;;18.20;99.90;;;;;;5100854;28;20046;-77
2022/06/26 05:43:39;;;;;;;11.50;10.30;;;18.20;99.90;;;;;;5094964;27;20118;-76
2022/06/26 05:46:05;;;;;;;12.35;10.75;;;18.20;99.90;;;;;;5075041;27;20047;-76
2022/06/26 05:48:30;;;;;;;13.45;11.63;;;18.30;99.90;;;;;;5078297;28;20522;-77
2022/06/26 05:50:56;;;;;;;13.55;11.35;;;18.30;99.90;;;;;;5078563;28;20110;-77
2022/06/26 05:53:22;;;;;;;14.82;11.23;;;18.30;99.90;;;;;;5078118;28;20039;-77
2022/06/26 05:55:49;;;;;;;13.45;11.90;;;18.30;99.90;;;;;;5065087;28;20066;-77
2022/06/26 05:58:15;;;;;;;13.93;11.55;;;18.30;99.90;;;;;;5094998;28;20051;-76
2022/06/26 06:00:41;;;;;;;18.08;11.93;;;18.20;99.90;;;;;;5102268;27;20039;-77
2022/06/26 06:03:07;;;;;;;14.45;12.95;;;18.20;99.90;;;;;;5131490;27;20432;-76
2022/06/26 06:05:34;;;;;;;15.50;12.27;;;18.10;99.90;;;;;;5086269;28;20074;-76
2022/06/26 06:08:00;;;;;;;16.77;12.27;;;18.10;99.90;;;;;;5110598;28;20036;-76
2022/06/26 06:10:27;;;;;;;13.85;11.95;;;18.00;99.90;;;;;;5113499;28;20038;-76
2022/06/26 06:12:54;;;;;;;14.45;12.45;;;18.00;99.90;;;;;;5114583;28;20473;-77
2022/06/26 06:15:20;;;;;;;15.30;12.65;;;18.00;99.90;;;;;;5105750;28;20039;-77
2022/06/26 06:17:46;;;;;;;13.10;11.70;;;18.00;99.90;;;;;;5122502;28;20038;-76
2022/06/26 06:20:14;;;;;;;14.18;12.63;;;18.00;99.90;;;;;;5097186;28;20047;-76
2022/06/26 06:22:45;;;;;;;17.35;12.57;;;18.00;99.90;;;;;;5131558;28;20477;-77
2022/06/26 06:25:12;;;;;;;16.42;13.13;;;18.00;99.90;;;;;;5118241;28;20062;-77
2022/06/26 06:27:38;;;;;;;16.40;12.23;;;18.10;99.90;;;;;;5098392;28;20122;-77
2022/06/26 06:30:06;;;;;;;14.68;12.98;;;18.00;99.90;;;;;;5084222;28;20403;-77
2022/06/26 06:32:32;;;;;;;15.93;13.15;;;18.00;99.90;;;;;;5090413;28;20044;-77
2022/06/26 06:34:59;;;;;;;15.65;12.48;;;18.00;99.90;;;;;;5089555;28;20379;-77
2022/06/26 06:37:25;;;;;;;16.00;13.13;;;17.90;99.90;;;;;;5074431;28;20050;-77
2022/06/26 06:39:50;;;;;;;18.13;13.40;;;17.90;99.90;;;;;;5075489;28;20043;-77
2022/06/26 06:42:16;;;;;;;15.02;12.57;;;18.00;99.90;;;;;;5110377;28;20047;-77
2022/06/26 06:44:42;;;;;;;15.13;12.35;;;18.10;99.90;;;;;;5106010;28;20533;-77
2022/06/26 06:47:09;;;;;;;18.83;11.90;;;18.20;99.90;;;;;;5097212;28;20080;-85
2022/06/26 06:49:35;;;;;;;15.10;11.70;;;18.20;99.90;;;;;;5113825;28;20036;-85
2022/06/26 06:52:01;;;;;;;15.57;12.25;;;18.30;99.90;;;;;;5092083;28;20039;-85
2022/06/26 06:54:26;;;;;;;15.38;12.48;;;18.30;99.90;;;;;;5097966;28;20047;-85
2022/06/26 06:56:53;;;;;;;14.32;11.98;;;18.40;99.90;;;;;;5081195;28;20040;-85
2022/06/26 06:59:18;;;;;;;15.02;11.57;;;18.70;99.90;;;;;;5070408;28;20051;-86
2022/06/26 07:01:44;;;;;;;17.63;12.07;;;18.90;99.90;;;;;;5126509;27;20048;-86
2022/06/26 07:04:11;;;;;;;14.27;11.32;;;19.10;99.90;;;;;;5089833;28;20036;-86
2022/06/26 07:06:36;;;;;;;14.55;11.13;;;19.20;99.90;;;;;;5064269;28;20067;-85
2022/06/26 07:09:03;;;;;;;14.93;12.95;;;19.40;99.90;;;;;;5081371;28;20040;-85
2022/06/26 07:11:29;;;;;;;15.98;11.70;;;19.60;99.90;;;;;;5080520;28;20038;-86
2022/06/26 07:13:54;;;;;;;15.13;11.95;;;19.70;99.90;;;;;;5098205;28;20127;-86
2022/06/26 07:16:20;;;;;;;13.18;11.02;;;19.90;99.90;;;;;;5063832;28;20043;-85
2022/06/26 07:18:46;;;;;;;13.75;11.55;;;20.10;99.90;;;;;;5104498;28;20075;-86
2022/06/26 07:21:12;;;;;;;16.25;11.40;;;20.20;99.90;;;;;;5080709;28;20040;-86
2022/06/26 07:23:37;;;;;;;13.05;10.70;;;20.40;99.90;;;;;;5079533;28;20044;-85
2022/06/26 07:26:03;;;;;;;12.32;11.02;;;20.60;99.90;;;;;;5080719;28;20082;-86
2022/06/26 07:28:29;;;;;;;13.32;10.10;;;20.70;99.90;;;;;;5080356;28;20073;-86
2022/06/26 07:30:55;;;;;;;15.10;11.75;;;20.90;99.90;;;;;;5097710;28;20066;-86
2022/06/26 07:36:05;;;;;;;13.68;10.73;;;21.00;99.90;;;;;;5083243;28;20044;-85
2022/06/26 07:38:31;;;;;;;12.30;9.88;;;21.00;99.90;;;;;;5080272;28;20044;-85
2022/06/26 07:40:57;;;;;;;11.20;8.95;;;21.10;99.90;;;;;;5080279;28;20144;-85
2022/06/26 07:43:23;;;;;;;11.52;9.15;;;21.40;99.90;;;;;;5080168;28;20105;-85
2022/06/26 07:45:49;;;;;;;9.05;8.15;;;21.70;99.90;;;;;;5073065;28;20032;-85
2022/06/26 07:48:15;;;;;;;9.93;8.02;;;22.00;99.90;;;;;;5082397;28;20103;-85
2022/06/26 07:50:41;;;;;;;11.93;7.65;;;22.00;99.90;;;;;;5099581;28;20059;-84
2022/06/26 07:53:07;;;;;;;8.35;6.18;;;21.80;99.90;;;;;;5082464;28;20043;-85
2022/06/26 07:55:32;;;;;;;7.93;5.25;;;21.60;99.90;;;;;;5082442;28;20047;-84
2022/06/26 07:57:58;;;;;;;7.03;5.28;;;21.40;99.90;;;;;;5062379;28;20044;-85
2022/06/26 08:00:24;;;;;;;6.50;5.05;;;21.30;99.90;;;;;;5075214;28;20028;-85
2022/06/26 08:02:50;;;;;;;7.45;5.03;;;21.40;99.90;;;;;;5082330;28;20039;-85
2022/06/26 08:05:16;;;;;;;6.10;4.57;;;21.70;99.90;;;;;;5080156;28;20096;-85
2022/06/26 08:07:43;;;;;;;6.57;5.03;;;22.00;99.90;;;;;;5080853;28;20050;-85
2022/06/26 08:10:08;;;;;;;7.00;5.03;;;22.30;99.90;;;;;;5079760;28;20484;-85
2022/06/26 08:12:34;;;;;;;6.78;4.45;;;22.50;99.90;;;;;;5079972;28;20061;-85
2022/06/26 08:15:00;;;;;;;6.07;3.88;;;22.70;99.90;;;;;;5097571;28;20040;-85
2022/06/26 08:17:26;;;;;;;5.20;4.25;;;23.00;99.90;;;;;;5063808;28;20361;-85
2022/06/26 08:19:52;;;;;;;7.97;4.65;;;23.30;99.90;;;;;;5079663;28;20130;-85
2022/06/26 08:22:17;;;;;;;6.22;4.53;;;23.50;99.90;;;;;;5078810;28;20047;-85
2022/06/26 08:24:43;;;;;;;5.20;3.75;;;23.60;99.90;;;;;;5062086;28;20425;-85
2022/06/26 08:27:09;;;;;;;4.70;3.20;;;23.60;99.90;;;;;;5061701;28;20047;-85
2022/06/26 08:29:36;;;;;;;6.15;3.05;;;23.70;99.90;;;;;;5060843;28;20040;-85
2022/06/26 08:32:03;;;;;;;5.30;3.22;;;23.80;99.90;;;;;;5078129;28;20492;-85
2022/06/26 08:34:29;;;;;;;5.93;3.35;;;23.90;99.90;;;;;;5078203;28;20097;-85
2022/06/26 08:36:56;;;;;;;4.88;3.17;;;23.90;99.90;;;;;;5095255;28;20039;-85
2022/06/26 08:39:24;;;;;;;5.88;3.20;;;23.90;99.90;;;;;;5094435;28;20480;-85
2022/06/26 08:41:52;;;;;;;5.13;2.78;;;24.00;99.90;;;;;;5061686;28;20032;-85
2022/06/26 08:44:18;;;;;;;5.20;3.00;;;24.20;99.90;;;;;;5079316;28;20102;-85
2022/06/26 08:46:46;;;;;;;5.03;2.63;;;24.20;99.90;;;;;;5093907;28;20462;-85
2022/06/26 08:49:21;;;;;;;4.93;2.95;;;24.20;99.90;;;;;;5093886;28;20044;-85
2022/06/26 08:51:48;;;;;;;4.57;2.60;;;24.20;99.90;;;;;;5094017;28;20036;-85
2022/06/26 08:54:15;;;;;;;4.10;2.55;;;24.30;99.90;;;;;;5095103;28;20286;-85
2022/06/26 08:56:45;;;;;;;5.35;2.55;;;24.30;99.90;;;;;;5077955;28;20040;-85
2022/06/26 08:59:13;;;;;;;4.22;2.38;;;24.40;99.90;;;;;;5077987;28;20044;-85
2022/06/26 09:01:39;;;;;;;6.25;3.35;;;24.50;99.90;;;;;;5078084;28;20047;-85
2022/06/26 09:04:06;;;;;;;4.47;2.70;;;24.60;99.90;;;;;;5077569;28;20083;-85
2022/06/26 09:06:40;;;;;;;5.18;2.60;;;24.50;99.90;;;;;;5077943;28;20075;-85
2022/06/26 09:09:13;;;;;;;5.35;3.00;;;24.60;99.80;;;;;;5077622;28;20075;-85
2022/06/26 09:11:40;;;;;;;5.03;2.72;;;24.60;99.70;;;;;;5077951;28;20038;-85
2022/06/26 09:14:06;;;;;;;4.40;2.83;;;24.40;99.90;;;;;;5078178;28;20062;-85
2022/06/26 09:16:32;;;;;;;5.35;2.60;;;24.20;99.90;;;;;;5094459;28;20074;-85
2022/06/26 09:19:08;;;;;;;4.32;3.00;;;24.00;99.80;;;;;;5093759;28;20090;-85
2022/06/26 09:21:34;;;;;;;7.03;2.60;;;23.80;99.40;;;;;;5077483;28;20036;-86
2022/06/26 09:24:00;;;;;;;4.32;2.33;;;23.60;99.80;;;;;;5094339;28;20127;-86
2022/06/26 09:26:26;;;;;;;6.53;3.05;;;23.40;99.60;;;;;;5077610;28;20587;-85
2022/06/26 09:28:52;;;;;;;7.25;2.30;;;23.30;99.70;;;;;;5060008;28;20040;-85
2022/06/26 09:31:22;;;;;;;6.32;2.85;;;23.20;99.90;;;;;;5078781;28;20039;-85
2022/06/26 09:33:48;;;;;;;4.75;2.53;;;23.10;99.90;;;;;;5080974;28;20551;-85
2022/06/26 09:36:16;;;;;;;4.90;2.85;;;23.10;99.90;;;;;;5097478;28;20035;-86
2022/06/26 09:38:48;;;;;;;4.00;2.58;;;23.00;99.90;;;;;;5079421;28;20110;-85
2022/06/26 09:41:14;;;;;;;4.65;2.80;;;23.00;99.90;;;;;;5097573;28;20126;-85
2022/06/26 09:43:44;;;;;;;5.10;2.90;;;22.80;99.90;;;;;;5097229;28;20048;-86
2022/06/26 09:46:13;;;;;;;5.25;2.95;;;22.70;99.90;;;;;;5097859;28;20049;-85
2022/06/26 09:48:40;;;;;;;5.32;2.78;;;22.60;99.90;;;;;;5080812;28;20572;-85
2022/06/26 09:51:12;;;;;;;4.28;2.30;;;22.70;99.90;;;;;;5080968;28;20043;-85
2022/06/26 09:53:39;;;;;;;3.97;2.67;;;22.70;99.90;;;;;;5081274;28;20031;-85
2022/06/26 09:56:06;;;;;;;4.78;2.55;;;22.80;99.90;;;;;;5063828;28;20100;-85
2022/06/26 09:58:32;;;;;;;7.55;2.40;;;22.90;99.90;;;;;;5080939;28;20071;-85
2022/06/26 10:06:31;;;;;;;5.07;2.70;;;23.00;99.90;;;;;;5082876;28;20554;-85
2022/06/26 10:08:59;;;;;;;3.15;2.42;;;23.00;99.90;;;;;;5096567;28;20108;-85
2022/06/26 10:11:30;;;;;;;4.97;2.83;;;23.00;99.90;;;;;;5080568;28;20127;-86
2022/06/26 10:14:17;;;;;;;5.95;3.00;;;22.90;99.90;;;;;;5080305;28;20089;-85
2022/06/26 10:17:14;;;;;;;4.68;2.50;;;22.90;99.90;;;;;;5079865;28;20038;-85
2022/06/26 10:19:57;;;;;;;4.78;2.45;;;22.90;99.90;;;;;;5080959;28;20078;-85
2022/06/26 10:22:23;;;;;;;4.03;2.90;;;22.90;99.90;;;;;;5063123;28;20502;-85
2022/06/26 10:24:53;;;;;;;5.53;2.95;;;22.90;99.90;;;;;;5096938;28;20048;-84
2022/06/26 10:27:31;;;;;;;4.18;2.47;;;22.90;99.60;;;;;;5081095;28;20043;-84
2022/06/26 10:30:17;;;;;;;5.50;2.42;;;22.70;99.30;;;;;;5083616;28;20047;-84
2022/06/26 10:32:43;;;;;;;4.70;2.50;;;22.70;99.80;;;;;;5083031;28;20051;-85
2022/06/26 10:35:11;;;;;;;4.60;2.60;;;22.70;99.90;;;;;;5100478;28;20522;-85
2022/06/26 10:37:44;;;;;;;6.20;2.95;;;22.80;99.90;;;;;;5101006;28;20091;-85
2022/06/26 10:43:03;;;;;;;7.07;2.72;;;22.80;99.80;;;;;;5100149;28;20061;-85
2022/06/26 10:45:36;;;;;;;4.00;2.65;;;22.80;99.90;;;;;;5050875;28;20096;-85
2022/06/26 10:48:07;;;;;;;4.88;2.90;;;22.90;99.90;;;;;;5100357;28;20046;-84
2022/06/26 10:50:37;;;;;;;12.25;3.38;;;23.00;99.90;;;;;;5067513;28;20479;-85
2022/06/26 10:53:23;;;;;;;4.72;2.63;;;23.10;99.90;;;;;;5100900;28;20040;-85
2022/06/26 10:56:04;;;;;;;6.10;2.50;;;23.00;99.00;;;;;;5100738;28;20047;-84
2022/06/26 10:58:32;;;;;;;3.88;2.60;;;23.10;99.70;;;;;;5082826;28;20104;-85
2022/06/26 11:01:04;;;;;;;3.63;2.42;;;23.10;99.70;;;;;;5100322;28;20036;-85
2022/06/26 11:03:31;;;;;;;5.32;2.75;;;23.20;99.20;;;;;;5100756;28;20503;-85
2022/06/26 11:05:56;;;;;;;5.30;2.42;;;23.20;98.90;;;;;;5083410;28;20040;-85
2022/06/26 11:08:34;;;;;;;3.88;2.60;;;23.20;99.00;;;;;;5083110;28;20372;-85
2022/06/26 11:11:03;;;;;;;4.03;2.50;;;23.40;99.20;;;;;;5100476;28;20390;-85
2022/06/26 11:13:29;;;;;;;4.60;2.67;;;23.50;99.50;;;;;;5099616;28;20135;-84
2022/06/26 11:15:55;;;;;;;5.47;2.65;;;23.50;99.30;;;;;;5099231;28;20036;-85
2022/06/26 11:18:21;;;;;;;6.32;2.40;;;23.50;99.10;;;;;;5084013;28;20046;-85
2022/06/26 11:20:51;;;;;;;3.28;2.10;;;23.50;99.00;;;;;;5066737;28;20040;-85
2022/06/26 11:23:28;;;;;;;4.93;2.50;;;23.60;99.00;;;;;;5100184;28;20039;-85
2022/06/26 11:26:09;;;;;;;6.63;2.50;;;23.70;98.50;;;;;;5099970;28;20083;-85
2022/06/26 11:28:38;;;;;;;5.35;1.90;;;23.60;97.80;;;;;;5098153;28;20538;-85
2022/06/26 11:31:06;;;;;;;4.68;2.25;;;23.50;97.90;;;;;;5081290;28;20036;-85
2022/06/26 11:33:35;;;;;;;5.60;2.20;;;23.50;97.90;;;;;;5098922;28;20475;-85
2022/06/26 11:36:16;;;;;;;3.33;2.33;;;23.40;97.80;;;;;;5097307;28;20092;-84
2022/06/26 11:38:53;;;;;;;4.38;2.50;;;23.40;97.90;;;;;;5082748;28;20043;-85
2022/06/26 11:41:19;;;;;;;5.43;2.55;;;23.40;98.00;;;;;;5081548;28;20126;-85
2022/06/26 11:43:56;;;;;;;4.30;2.60;;;23.40;98.30;;;;;;5082093;28;20402;-85
2022/06/26 11:46:23;;;;;;;5.35;2.45;;;23.40;98.20;;;;;;5098094;28;20484;-85
2022/06/26 11:48:53;;;;;;;4.70;2.03;;;23.40;98.60;;;;;;5081691;28;20039;-84
2022/06/26 11:51:20;;;;;;;4.82;2.78;;;23.50;98.60;;;;;;5098524;28;20035;-85
2022/06/26 11:53:49;;;;;;;3.90;2.38;;;23.50;98.40;;;;;;5099409;28;20074;-85
2022/06/26 11:56:21;;;;;;;3.88;2.65;;;23.50;98.50;;;;;;5098604;28;20035;-84
2022/06/26 11:58:49;;;;;;;3.92;2.53;;;23.50;98.90;;;;;;5097831;28;20166;-84
2022/06/26 12:01:16;;;;;;;4.00;2.97;;;23.70;98.60;;;;;;5082610;28;20070;-85
2022/06/26 12:03:51;;;;;;;6.93;3.33;;;23.70;98.50;;;;;;5081797;28;20487;-85
2022/06/26 12:06:34;;;;;;;3.50;2.60;;;23.80;98.30;;;;;;5098413;28;20449;-85
2022/06/26 12:09:02;;;;;;;4.32;2.80;;;23.80;99.30;;;;;;5082222;28;20048;-85
2022/06/26 12:11:28;;;;;;;4.50;2.70;;;23.80;98.90;;;;;;5082901;28;20139;-85
2022/06/26 12:13:54;;;;;;;5.53;2.80;;;23.70;99.10;;;;;;5065268;28;20070;-85
2022/06/26 12:16:20;;;;;;;6.95;3.05;;;23.60;99.00;;;;;;5099024;28;20387;-85
2022/06/26 12:18:49;;;;;;;5.38;3.15;;;23.60;99.10;;;;;;5064257;28;20048;-85
2022/06/26 12:21:20;;;;;;;3.85;2.70;;;23.50;98.60;;;;;;5080911;28;20051;-85
2022/06/26 12:23:48;;;;;;;4.97;2.42;;;23.40;98.10;;;;;;5081295;28;20396;-86
2022/06/26 12:26:18;;;;;;;4.40;2.75;;;23.20;99.00;;;;;;5097938;28;20488;-85
2022/06/26 12:28:50;;;;;;;5.55;2.60;;;23.10;99.60;;;;;;5098530;28;20609;-85
2022/06/26 12:31:18;;;;;;;3.47;2.10;;;23.00;99.30;;;;;;5056810;28;1147203;-85
2022/06/26 12:33:45;;;;;;;7.20;2.42;;;22.90;99.50;;;;;;5081943;28;20043;-85
2022/06/26 12:36:11;;;;;;;5.85;2.28;;;22.90;99.70;;;;;;5097917;28;20480;-85
2022/06/26 12:38:38;;;;;;;5.30;2.20;;;22.80;99.50;;;;;;5080742;28;20043;-85
2022/06/26 12:41:05;;;;;;;4.85;2.35;;;22.80;99.70;;;;;;5080257;28;20089;-85
2022/06/26 12:43:32;;;;;;;4.47;2.58;;;22.80;99.90;;;;;;5080200;28;20044;-85
2022/06/26 12:45:58;;;;;;;4.22;2.55;;;22.90;99.50;;;;;;5097198;28;20039;-85
2022/06/26 12:48:24;;;;;;;3.63;2.33;;;22.90;99.00;;;;;;5097399;28;20050;-85
2022/06/26 12:50:50;;;;;;;3.25;2.30;;;22.90;99.30;;;;;;5063466;28;20071;-84
2022/06/26 12:53:16;;;;;;;6.00;2.50;;;22.80;99.70;;;;;;5080525;28;20078;-85
2022/06/26 12:55:42;;;;;;;5.80;2.28;;;22.80;99.90;;;;;;5064163;28;20039;-85